^^
Meteo Knjazevac Station Historical Data
Daily Summary for June 25, 2021 Units:  English    Metric   Both
Daily Weekly Monthly Yearly Custom
  High: Low: Average:
Temperature: 90.1 °F 54.5 °F 73 °F
Dew Point: 70.7 °F 53.4 °F 61.9 °F
Humidity: 99% 38% 72%
Wind Speed: 7mph 0mph 1.7mph
Wind Gust: 15mph - -
Wind- - SSW
Pressure: 30.12 in 30.04 in -
Precipitation: 0.00 in    
Historical Graphs
 
 
Tabular Data for June 25, 2021
Time Temperature Dew Point Pressure Wind Wind Speed Wind Gust Humidity Rainfall Rate (Hourly) solar Conditions
00:00 62.7 °F 59.1 °F 30.09 in West 1 mph 3 mph 88% 0.00 in 0 W/m2
00:10 62.4 °F 59.1 °F 30.09 in West 1 mph 2 mph 89% 0.00 in 0 W/m2
00:20 62.1 °F 58.8 °F 30.09 in Calm   2 mph 89% 0.00 in 0 W/m2
00:30 61.9 °F 58.6 °F 30.09 in West 1 mph 3 mph 89% 0.00 in 0 W/m2
00:40 61.7 °F 58.7 °F 30.09 in Calm   3 mph 90% 0.00 in 0 W/m2
00:50 61.3 °F 58.4 °F 30.09 in Calm   2 mph 90% 0.00 in 0 W/m2
01:00 61 °F 58 °F 30.09 in Calm   1 mph 90% 0.00 in 0 W/m2
01:10 60.6 °F 57.7 °F 30.09 in WNW 1 mph 2 mph 90% 0.00 in 0 W/m2
01:20 60.3 °F 57.6 °F 30.10 in Calm   2 mph 91% 0.00 in 0 W/m2
01:30 59.9 °F 57.3 °F 30.09 in Calm   2 mph 91% 0.00 in 0 W/m2
01:40 59.5 °F 56.9 °F 30.09 in Calm   2 mph 91% 0.00 in 0 W/m2
01:50 59.2 °F 57.2 °F 30.09 in WNW 2 mph 5 mph 93% 0.00 in 0 W/m2
02:00 59 °F 57 °F 30.09 in West 1 mph 5 mph 93% 0.00 in 0 W/m2
02:10 58.6 °F 56.9 °F 30.09 in West 3 mph 7 mph 94% 0.00 in 0 W/m2
02:20 58.3 °F 56.6 °F 30.09 in WSW 2 mph 6 mph 94% 0.00 in 0 W/m2
02:30 57.9 °F 56.2 °F 30.09 in West 2 mph 6 mph 94% 0.00 in 0 W/m2
02:40 57.9 °F 56.2 °F 30.09 in West 2 mph 6 mph 94% 0.00 in 0 W/m2
02:50 57.8 °F 56.1 °F 30.09 in WSW 1 mph 3 mph 94% 0.00 in 0 W/m2
03:00 57.7 °F 56 °F 30.09 in West 2 mph 2 mph 94% 0.00 in 0 W/m2
03:10 57.4 °F 55.7 °F 30.08 in WSW 1 mph 2 mph 94% 0.00 in 0 W/m2
03:20 57.4 °F 55.7 °F 30.08 in West 1 mph 2 mph 94% 0.00 in 0 W/m2
03:30 57 °F 55.3 °F 30.09 in WNW 1 mph 2 mph 94% 0.00 in 0 W/m2
03:40 56.8 °F 55.4 °F 30.08 in Calm   2 mph 95% 0.00 in 0 W/m2
03:50 56.5 °F 54.8 °F 30.08 in Calm   2 mph 94% 0.00 in 0 W/m2
04:00 56.3 °F 54.9 °F 30.08 in WNW 2 mph 3 mph 95% 0.00 in 0 W/m2
04:10 55.9 °F 54.5 °F 30.08 in WNW 2 mph 5 mph 95% 0.00 in 0 W/m2
04:20 55.9 °F 54.8 °F 30.09 in West 2 mph 5 mph 96% 0.00 in 0 W/m2
04:30 55.6 °F 54.5 °F 30.10 in West 3 mph 6 mph 96% 0.00 in 0 W/m2
04:40 55.6 °F 54.2 °F 30.10 in Calm   5 mph 95% 0.00 in 0 W/m2
04:50 55.2 °F 53.8 °F 30.10 in Calm   2 mph 95% 0.00 in 0 W/m2
05:00 55.2 °F 54.1 °F 30.10 in Calm     96% 0.00 in 0 W/m2
05:10 55 °F 53.6 °F 30.11 in NW 1 mph 2 mph 95% 0.00 in 0 W/m2
05:20 55.2 °F 54.1 °F 30.11 in Calm   2 mph 96% 0.00 in 6 W/m2
05:30 55.2 °F 54.1 °F 30.11 in Calm   2 mph 96% 0.00 in 12 W/m2
05:40 55.2 °F 54.1 °F 30.11 in NW 1 mph 4 mph 96% 0.00 in 20 W/m2
05:50 54.9 °F 53.5 °F 30.11 in West 1 mph 4 mph 95% 0.00 in 30 W/m2
06:00 54.9 °F 53.7 °F 30.11 in WNW 1 mph 4 mph 96% 0.00 in 45 W/m2
06:10 54.7 °F 53.6 °F 30.12 in WSW 2 mph 3 mph 96% 0.00 in 67 W/m2
06:20 54.5 °F 53.4 °F 30.12 in West 1 mph 4 mph 96% 0.00 in 85 W/m2
06:30 54.5 °F 54 °F 30.12 in NW 2 mph 5 mph 98% 0.00 in 102 W/m2
06:40 55 °F 54.8 °F 30.12 in NW 2 mph 4 mph 99% 0.00 in 134 W/m2
06:50 55.2 °F 54.9 °F 30.12 in Calm   3 mph 99% 0.00 in 114 W/m2
07:00 55.8 °F 55.5 °F 30.12 in West 1 mph 2 mph 99% 0.00 in 194 W/m2
07:10 56.1 °F 55.6 °F 30.12 in Calm   3 mph 98% 0.00 in 228 W/m2
07:20 56.6 °F 56.3 °F 30.12 in West 1 mph 3 mph 99% 0.00 in 259 W/m2
07:30 57.3 °F 56.8 °F 30.12 in NW 2 mph 4 mph 98% 0.00 in 293 W/m2
07:40 58.1 °F 57.5 °F 30.12 in WNW 1 mph 3 mph 98% 0.00 in 325 W/m2
07:50 58.8 °F 58.2 °F 30.12 in West 2 mph 3 mph 98% 0.00 in 358 W/m2
08:00 59.7 °F 58.6 °F 30.12 in West 2 mph 5 mph 96% 0.00 in 394 W/m2
08:10 60.8 °F 59 °F 30.12 in West 1 mph 5 mph 94% 0.00 in 430 W/m2
08:20 61.5 °F 58.9 °F 30.12 in Calm   3 mph 91% 0.00 in 465 W/m2
08:30 62.4 °F 59.4 °F 30.12 in WNW 1 mph 3 mph 90% 0.00 in 503 W/m2
08:40 63.3 °F 60 °F 30.12 in Calm   3 mph 89% 0.00 in 553 W/m2
08:50 64.5 °F 60.9 °F 30.12 in NW 1 mph 2 mph 88% 0.00 in 586 W/m2
09:00 66 °F 61.7 °F 30.12 in West 1 mph 3 mph 86% 0.00 in 620 W/m2
09:10 68.5 °F 63.4 °F 30.12 in NNW 1 mph 4 mph 84% 0.00 in 650 W/m2
09:20 70.8 °F 64.4 °F 30.12 in NE 2 mph 5 mph 80% 0.00 in 676 W/m2
09:30 72.3 °F 65.4 °F 30.12 in NNE 1 mph 7 mph 79% 0.00 in 701 W/m2
09:40 73.9 °F 66.6 °F 30.11 in NNE 3 mph 6 mph 78% 0.00 in 726 W/m2
09:50 75.2 °F 66.3 °F 30.10 in NNE 2 mph 6 mph 74% 0.00 in 749 W/m2
10:00 76.3 °F 66.6 °F 30.11 in North 3 mph 6 mph 72% 0.00 in 771 W/m2
10:10 77.5 °F 67.7 °F 30.11 in North 1 mph 5 mph 72% 0.00 in 792 W/m2
10:20 78.8 °F 66.9 °F 30.10 in NNE 3 mph 7 mph 67% 0.00 in 812 W/m2
10:30 79.3 °F 66.5 °F 30.10 in NNE 3 mph 6 mph 65% 0.00 in 831 W/m2
10:40 80.4 °F 66.6 °F 30.10 in NE 5 mph 10 mph 63% 0.00 in 849 W/m2
10:50 81.3 °F 65.6 °F 30.10 in ESE 3 mph 14 mph 59% 0.00 in 200 W/m2
11:00 82 °F 65.8 °F 30.10 in ESE 6 mph 13 mph 58% 0.00 in 880 W/m2
11:10 82.7 °F 64.9 °F 30.10 in ESE 6 mph 13 mph 55% 0.00 in 893 W/m2
11:20 83.5 °F 65.6 °F 30.09 in ESE 7 mph 15 mph 55% 0.00 in 643 W/m2
11:30 84 °F 66.1 °F 30.09 in ESE 2 mph 11 mph 55% 0.00 in 916 W/m2
11:40 84.9 °F 68 °F 30.09 in SE 3 mph 7 mph 57% 0.00 in 925 W/m2
11:50 85.5 °F 66.9 °F 30.09 in SSE 2 mph 7 mph 54% 0.00 in 933 W/m2
12:00 85.8 °F 67.3 °F 30.08 in SE 3 mph 9 mph 54% 0.00 in 939 W/m2
12:10 86.2 °F 63.6 °F 30.08 in SE 5 mph 9 mph 47% 0.00 in 943 W/m2
12:20 86 °F 64.6 °F 30.08 in South 2 mph 9 mph 49% 0.00 in 946 W/m2
12:30 86.5 °F 65.1 °F 30.08 in South 5 mph 9 mph 49% 0.00 in 948 W/m2
12:40 86.5 °F 63.9 °F 30.08 in SSW 5 mph 8 mph 47% 0.00 in 948 W/m2
12:50 86.7 °F 64.7 °F 30.08 in SE 3 mph 8 mph 48% 0.00 in 946 W/m2
13:00 87.1 °F 65 °F 30.07 in SSE 1 mph 6 mph 48% 0.00 in 943 W/m2
13:10 87.4 °F 64.7 °F 30.07 in SSE 3 mph 8 mph 47% 0.00 in 463 W/m2
13:20 87.8 °F 63.8 °F 30.07 in SSW 3 mph 7 mph 45% 0.00 in 932 W/m2
13:30 88 °F 64 °F 30.06 in South 2 mph 12 mph 45% 0.00 in 925 W/m2
13:40 88 °F 64 °F 30.06 in South 1 mph 8 mph 45% 0.00 in 916 W/m2
13:50 88 °F 63.3 °F 30.06 in SSW 5 mph 9 mph 44% 0.00 in 905 W/m2
14:00 88.3 °F 63.6 °F 30.06 in South 5 mph 7 mph 44% 0.00 in 893 W/m2
14:10 88.3 °F 64.3 °F 30.06 in SSW 2 mph 6 mph 45% 0.00 in 879 W/m2
14:20 88.9 °F 66 °F 30.06 in SSE 2 mph 6 mph 47% 0.00 in 865 W/m2
14:30 89.2 °F 65.1 °F 30.06 in ESE 3 mph 7 mph 45% 0.00 in 848 W/m2
14:40 89.2 °F 64.5 °F 30.06 in South 3 mph 7 mph 44% 0.00 in 831 W/m2
14:50 89.2 °F 66.4 °F 30.06 in SE 1 mph 10 mph 47% 0.00 in 812 W/m2
15:00 89.1 °F 63.7 °F 30.05 in SSE 3 mph 7 mph 43% 0.00 in 792 W/m2
15:10 89.4 °F 64.6 °F 30.05 in SE 3 mph 6 mph 44% 0.00 in 771 W/m2
15:20 89.6 °F 63.5 °F 30.04 in SE 3 mph 6 mph 42% 0.00 in 749 W/m2
15:30 89.6 °F 65.4 °F 30.04 in SE 2 mph 8 mph 45% 0.00 in 725 W/m2
15:40 89.6 °F 62.1 °F 30.04 in SSE 2 mph 6 mph 40% 0.00 in 701 W/m2
15:50 89.8 °F 62.2 °F 30.04 in SSW 2 mph 6 mph 40% 0.00 in 675 W/m2
16:00 89.6 °F 62.1 °F 30.04 in SE 2 mph 8 mph 40% 0.00 in 649 W/m2
16:10 89.8 °F 61.5 °F 30.04 in SE 3 mph 6 mph 39% 0.00 in 622 W/m2
16:20 90 °F 62.4 °F 30.04 in SSW 2 mph 6 mph 40% 0.00 in 594 W/m2
16:30 90.1 °F 62.5 °F 30.04 in South 2 mph 7 mph 40% 0.00 in 562 W/m2
16:40 90.1 °F 62.5 °F 30.04 in Calm   5 mph 40% 0.00 in 526 W/m2
16:50 90.1 °F 61.8 °F 30.04 in SSW 3 mph 6 mph 39% 0.00 in 492 W/m2
17:00 90 °F 60.9 °F 30.04 in South 3 mph 5 mph 38% 0.00 in 456 W/m2
17:10 90 °F 62.4 °F 30.04 in South 1 mph 6 mph 40% 0.00 in 418 W/m2
17:20 90 °F 65.1 °F 30.04 in ESE 1 mph 5 mph 44% 0.00 in 382 W/m2
17:30 90 °F 64.5 °F 30.04 in ENE 1 mph 4 mph 43% 0.00 in 347 W/m2
17:40 89.6 °F 64.8 °F 30.04 in South 1 mph 6 mph 44% 0.00 in 312 W/m2
17:50 89.8 °F 65.6 °F 30.04 in SSW 2 mph 3 mph 45% 0.00 in 277 W/m2
18:00 89.6 °F 66.7 °F 30.04 in SSW 2 mph 3 mph 47% 0.00 in 244 W/m2
18:10 89.4 °F 67.2 °F 30.04 in SSW 2 mph 4 mph 48% 0.00 in 212 W/m2
18:20 89.2 °F 67.6 °F 30.04 in SW 1 mph 4 mph 49% 0.00 in 174 W/m2
18:30 88.5 °F 67.5 °F 30.04 in SE 2 mph 4 mph 50% 0.00 in 112 W/m2
18:40 88 °F 69.2 °F 30.04 in East 3 mph 7 mph 54% 0.00 in 105 W/m2
18:50 87.3 °F 68.6 °F 30.04 in ENE 2 mph 6 mph 54% 0.00 in 88 W/m2
19:00 86.7 °F 70.7 °F 30.04 in NE 1 mph 6 mph 59% 0.00 in 71 W/m2
19:10 86 °F 70 °F 30.04 in Calm   3 mph 59% 0.00 in 53 W/m2
19:20 85.1 °F 68.7 °F 30.04 in Calm   3 mph 58% 0.00 in 42 W/m2
19:30 84 °F 68.2 °F 30.04 in NNE 1 mph 3 mph 59% 0.00 in 28 W/m2
19:40 83.1 °F 68.8 °F 30.05 in ENE 1 mph 4 mph 62% 0.00 in 18 W/m2
19:50 82 °F 69.1 °F 30.05 in South 1 mph 3 mph 65% 0.00 in 8 W/m2
20:00 81.1 °F 69.1 °F 30.05 in SW 1 mph 3 mph 67% 0.00 in 3 W/m2
20:10 80.1 °F 68.6 °F 30.05 in SW 1 mph 3 mph 68% 0.00 in 0 W/m2
20:20 79 °F 67.9 °F 30.06 in SW 2 mph 4 mph 69% 0.00 in 0 W/m2
20:30 77.7 °F 67.2 °F 30.06 in WSW 2 mph 5 mph 70% 0.00 in 0 W/m2
20:40 77 °F 67.3 °F 30.06 in SW 2 mph 3 mph 72% 0.00 in 0 W/m2
20:50 76.3 °F 67 °F 30.06 in SW 1 mph 3 mph 73% 0.00 in 0 W/m2
21:00 75.5 °F 66.7 °F 30.07 in WSW 2 mph 4 mph 74% 0.00 in 0 W/m2
21:10 75 °F 66.2 °F 30.07 in West 1 mph 5 mph 74% 0.00 in 0 W/m2
21:20 74.3 °F 65.9 °F 30.08 in SW 2 mph 3 mph 75% 0.00 in 0 W/m2
21:30 73.6 °F 65.9 °F 30.08 in WSW 2 mph 4 mph 77% 0.00 in 0 W/m2
21:40 73 °F 65.8 °F 30.08 in SW 2 mph 3 mph 78% 0.00 in 0 W/m2
21:50 72.5 °F 65.2 °F 30.08 in SW 2 mph 3 mph 78% 0.00 in 0 W/m2
22:00 72 °F 65.1 °F 30.09 in SW 2 mph 3 mph 79% 0.00 in 0 W/m2
22:10 71.4 °F 64.9 °F 30.09 in WSW 1 mph 3 mph 80% 0.00 in 0 W/m2
22:20 70.9 °F 64.4 °F 30.09 in Calm   2 mph 80% 0.00 in 0 W/m2
22:30 70.5 °F 64 °F 30.09 in Calm   2 mph 80% 0.00 in 0 W/m2
22:40 70 °F 63.9 °F 30.09 in SSW 2 mph 4 mph 81% 0.00 in 0 W/m2
22:50 69.6 °F 63.5 °F 30.09 in South 1 mph 4 mph 81% 0.00 in 0 W/m2
23:00 69.1 °F 63 °F 30.10 in SW 2 mph 3 mph 81% 0.00 in 0 W/m2
23:10 68.7 °F 62.7 °F 30.10 in SSW 1 mph 4 mph 81% 0.00 in 0 W/m2
23:20 68.5 °F 63.2 °F 30.09 in Calm   2 mph 83% 0.00 in 0 W/m2
23:30 68.4 °F 63 °F 30.09 in ENE 2 mph 3 mph 83% 0.00 in 0 W/m2
23:40 68 °F 62.6 °F 30.10 in Calm   3 mph 83% 0.00 in 0 W/m2
23:50 67.6 °F 62.6 °F 30.10 in Calm   2 mph 84% 0.00 in 0 W/m2
Knjazevac, Serbia
Compliments of Weather Underground - 2 mb